Nearby METAR Reports

CWGD - Goderich (autob), Ontario, Canada
Distance from station: SW 47km
Updated: 06/20/2022 12:00pm
NOT Current

 Wind from S
Wind: S 11 km/h
Temperature: 17°C
Dew Point: 13°C
Humidity: 77%
2022/06/20 16:00 CWGD 201600Z AUTO 19006KT 17/13 RMK AO1 PK WND 20017/1500 SLP219 T01660129 52003
CWLS - Mount Forest(Mar, Ontario, Canada
Distance from station: ESE 53km
Updated: 06/26/2022 7:00pm

 Wind from WNW
Wind: WNW 11 km/h
Temperature: 25°C
Dew Point: 18°C
Humidity: 65%
2022/06/26 23:00 CWLS 262300Z AUTO 29006KT 25/18 RMK AO1 SLP111 T02540178 56009
 
CYVV - Wiarton Air, Ontario, Canada
Distance from station: NNE 75km
Updated: 06/26/2022 7:00pm
Mostly cloudy
Mostly cloudy
 Wind from W
Wind: W 7 km/h
Temperature: 20°C
Dew Point: 17°C
Humidity: 83%
Barometer: 1011.2 hPa
Clouds: Mostly cloudy
Visibility: 24 km
Cloud details: Partly cloudy 549 m
Mostly cloudy 1219 m
Mostly cloudy 7620 m
2022/06/26 23:00 CYVV 262300Z 28004KT 15SM SCT018 BKN040 BKN250 20/17 A2986 RMK CU4SC2CI1 SLP112 DENSITY ALT 1600FT
CZEL - Elora Rcs, Ontario, Canada
Distance from station: ESE 93km
Updated: 06/26/2022 7:00pm

 Wind from W
Wind: W 20 km/h
Temperature: 27°C
Heat Index: 28°C
Dew Point: 18°C
Humidity: 58%
2022/06/26 23:00 CZEL 262300Z AUTO 27011KT 27/18 RMK AO1 PK WND 28017/2230 SLP111 T02740176 57011
 
CWCO - Collingwood (aut, Ontario, Canada
Distance from station: ENE 104km
Updated: 06/26/2022 7:00pm

 Wind from N
Wind: N 2 km/h
Temperature: 22°C
Dew Point: 17°C
Humidity: 73%
2022/06/26 23:00 CWCO 262300Z AUTO 35001KT 22/17 RMK AO1 SLP105 T02180169 58004
CYKF - Waterloo Well, Ontario, Canada
Distance from station: SE 107km
Updated: 06/26/2022 7:00pm
Few Clouds
Few Clouds
 Wind from SW
Wind: SW 7 km/h
Temperature: 25°C
Dew Point: 22°C
Humidity: 83%
Barometer: 1011.2 hPa
Clouds: Few Clouds
Visibility: 14 km
Cloud details: Few Clouds 2621 m
2022/06/26 23:00 CYKF 262300Z AUTO 23004KT 9SM FEW086 25/22 A2986 RMK SLP110 DENSITY ALT 2600FT
 
KP58 - Port Hope, Michigan, USA
Distance from station: W 114km
Updated: 06/26/2022 6:55pm

 Wind from WNW
Wind: WNW 17 km/h, Gust: 28 km/h
Temperature: 27°C
Dew Point: 0°C
Humidity: 17%
Barometer: 1011.5 hPa
2022/06/26 22:55 KP58 262255Z AUTO 29009G15KT 27/00 A2987 RMK AO1 PK WND 29029/2207 SLP104 T02720000
CYBN - Borden, Ontario, Canada
Distance from station: E 118km
Updated: 01/06/2022 7:00am
NOT Current
Light snow, Overcast
Light snow, Overcast
 Wind from SW
Wind: SW 15 km/h
Temperature: -6°C
Wind Chill: -12°C
Dew Point: -9°C
Humidity: 80%
Barometer: 1007.8 hPa
Summary: Light Snow
Clouds: Overcast
Visibility: 10 km
Cloud details: Overcast 579 m
2022/01/06 12:00 CYBN 061200Z AUTO 23008KT 6SM -SN OVC019 M06/M09 A2976 RMK SLP091
 
CYXU - London Airport, Ontario, Canada
Distance from station: S 123km
Updated: 06/26/2022 7:00pm
Light rain, Showers, Mostly cloudy
Light rain, Showers, Mostly cloudy
 Wind from W
Wind: W 11 km/h
Temperature: 25°C
Dew Point: 19°C
Humidity: 69%
Barometer: 1011.5 hPa
Summary: Light rain, Showers
Clouds: Mostly cloudy
Visibility: 16 km
Cloud details: Mostly cloudy 1128 m
Mostly cloudy 2134 m
2022/06/26 23:00 CYXU 262300Z 28006KT 10SM -SHRA BKN037TCU BKN070 25/19 A2987 RMK TCU6AC1 SLP115 DENSITY ALT 2400FT
CXET - Egbert Cs, Ontario, Canada
Distance from station: E 128km
Updated: 06/26/2022 7:00pm

 Wind from NNW
Wind: NNW 9 km/h
Temperature: 25°C
Dew Point: 18°C
Humidity: 65%
2022/06/26 23:00 CXET 262300Z AUTO 34005KT 25/18 RMK AO1 SLP107 T02500184 56007
 
CWMZ - Western Isl (map, Ontario, Canada
Distance from station: NE 129km
Updated: 06/26/2022 6:00pm
NOT Current

 Wind from N
Wind: N 6 km/h
Temperature: 19°C
Dew Point: 16°C
Humidity: 83%
2022/06/26 22:00 CWMZ 262200Z AUTO 35003KT 19/16 RMK AO1 SLP113 T01890161 58006
KBAX - Bad Axe, Michigan, USA
Distance from station: WSW 133km
Updated: 06/26/2022 6:55pm
Clear
Clear
 Wind from WNW
Wind: WNW 19 km/h, Gust: 35 km/h
Temperature: 26°C
Dew Point: 4°C
Humidity: 24%
Barometer: 1012.2 hPa
Clouds: Clear
Visibility: 16 km
2022/06/26 22:55 KBAX 262255Z AUTO 29010G19KT 10SM CLR 26/04 A2989 RMK AO2 T02620042
 
CWWX - Cove Island (map, Ontario, Canada
Distance from station: NNW 137km
Updated: 05/11/2021 10:00am
NOT Current

 Wind from NNW
Wind: NNW 30 km/h
Temperature: 5°C
Wind Chill: 0°C
Dew Point: 2°C
Humidity: 81%
2021/05/11 14:00 CWWX 111400Z AUTO 33016KT 05/02 RMK AO1 PK WND 34021/1308 SLP196 T00470019 51010
CYZR - Sarnia Airport, Ontario, Canada
Distance from station: SSW 144km
Updated: 06/26/2022 7:00pm
Few Clouds
Few Clouds
 Wind from W
Wind: W 17 km/h, Gust: 33 km/h
Temperature: 28°C
Heat Index: 28°C
Dew Point: 17°C
Humidity: 51%
Barometer: 1011.5 hPa
Clouds: Few Clouds
Visibility: 14 km
Cloud details: Few Clouds 1829 m
2022/06/26 23:00 CYZR 262300Z AUTO 27009G18KT 9SM FEW060 28/17 A2987 RMK SLP112 DENSITY ALT 2400FT
 
CXHM - Hamilton Rbg Cs, Ontario, Canada
Distance from station: SE 150km
Updated: 06/26/2022 7:00pm

 Wind from SW
Wind: SW 6 km/h
Temperature: 28°C
Heat Index: 29°C
Dew Point: 20°C
Humidity: 62%
2022/06/26 23:00 CXHM 262300Z AUTO 23003KT 28/20 RMK AO1 SLP097 T02810201 56014
CYYZ - Toronto/Pearson, Ontario, Canada
Distance from station: ESE 150km
Updated: 06/26/2022 7:00pm
Mostly cloudy
Mostly cloudy
 Wind from W
Wind: W 19 km/h
Temperature: 29°C
Heat Index: 31°C
Dew Point: 20°C
Humidity: 58%
Barometer: 1009.8 hPa
Clouds: Mostly cloudy
Visibility: 24 km
Cloud details: Mostly cloudy 1219 m
Mostly cloudy 2591 m
2022/06/26 23:00 CYYZ 262300Z 26010KT 15SM BKN040TCU BKN085 29/20 A2982 RMK TCU7AC1 AC TR SLP097 DENSITY ALT 2500FT
 
CXBI - Barrie-Oro, Ontario, Canada
Distance from station: ENE 151km
Updated: 06/26/2022 7:00pm

 Wind from NW
Wind: NW 13 km/h
Temperature: 25°C
Dew Point: 18°C
Humidity: 65%
2022/06/26 23:00 CXBI 262300Z AUTO 31007KT 25/18 RMK AO1 SLP110 T02500180 56005
CXDI - Delhi Cs (aut), Ontario, Canada
Distance from station: SSE 154km
Updated: 06/26/2022 7:00pm

 Wind from WSW
Wind: WSW 11 km/h
Temperature: 27°C
Heat Index: 28°C
Dew Point: 19°C
Humidity: 62%
2022/06/26 23:00 CXDI 262300Z AUTO 24006KT 27/19 RMK AO1 SLP111 T02690194 56016
 
CWWB - Burlington Piers, Ontario, Canada
Distance from station: SE 157km
Updated: 06/26/2022 7:00pm

 Wind from SW
Wind: SW 9 km/h
Temperature: 28°C
Heat Index: 29°C
Dew Point: 20°C
Humidity: 62%
2022/06/26 23:00 CWWB 262300Z AUTO 22005KT 28/20 RMK AO1 SLP101 T02790195 56014
CYHM - Hamilton Airport, Ontario, Canada
Distance from station: SE 157km
Updated: 06/26/2022 7:00pm
Partly cloudy
Partly cloudy
 Wind from SW
Wind: SW 19 km/h, Gust: 30 km/h
Temperature: 27°C
Heat Index: 29°C
Dew Point: 20°C
Humidity: 66%
Barometer: 1010.8 hPa
Clouds: Partly cloudy
Visibility: 24 km
Cloud details: Few Clouds 914 m
Few Clouds 2438 m
Partly cloudy 7620 m
2022/06/26 23:00 CYHM 262300Z 23010G16KT 15SM FEW030 FEW080 SCT250 27/20 A2985 RMK CU1AC1CI1 SLP107 DENSITY ALT 2500FT